createdAt,value
2023-02-17T00:02:16.028Z,10.66
2023-02-17T00:04:44.342Z,10.75
2023-02-17T00:07:12.218Z,10.73
2023-02-17T00:09:40.443Z,10.70
2023-02-17T00:12:08.994Z,10.66
2023-02-17T00:14:40.263Z,10.64
2023-02-17T00:17:08.663Z,10.55
2023-02-17T00:19:36.603Z,10.84
2023-02-17T00:22:04.636Z,10.84
2023-02-17T00:24:34.091Z,10.86
2023-02-17T00:27:02.305Z,10.75
2023-02-17T00:29:30.389Z,10.74
2023-02-17T00:32:01.637Z,10.83
2023-02-17T00:34:29.643Z,10.81
2023-02-17T00:36:57.559Z,10.76
2023-02-17T00:39:27.416Z,11.00
2023-02-17T00:41:55.391Z,10.79
2023-02-17T00:44:25.667Z,10.94
2023-02-17T00:46:54.019Z,11.14
2023-02-17T00:49:25.704Z,10.85
2023-02-17T00:51:54.955Z,10.95
2023-02-17T00:54:22.917Z,10.91
2023-02-17T00:56:50.911Z,11.02
2023-02-17T00:59:19.011Z,10.92
2023-02-17T01:01:47.042Z,10.94
2023-02-17T01:04:15.104Z,10.74
2023-02-17T01:06:44.478Z,10.64
2023-02-17T01:09:15.754Z,10.91
2023-02-17T01:11:44.352Z,10.74
2023-02-17T01:14:14.848Z,10.82
2023-02-17T01:16:47.430Z,10.81
2023-02-17T01:19:17.677Z,10.75
2023-02-17T01:21:50.421Z,10.64
2023-02-17T01:24:18.382Z,10.63
2023-02-17T01:26:46.415Z,10.65
2023-02-17T01:29:14.377Z,10.55
2023-02-17T01:31:45.070Z,10.58
2023-02-17T01:34:13.105Z,10.63
2023-02-17T01:36:41.076Z,10.60
2023-02-17T01:39:14.635Z,10.51
2023-02-17T01:41:42.875Z,10.65
2023-02-17T01:44:15.517Z,10.81
2023-02-17T01:46:45.113Z,10.80
2023-02-17T01:49:21.253Z,10.53
2023-02-17T01:51:52.515Z,10.57
2023-02-17T01:54:30.352Z,10.45
2023-02-17T01:57:01.744Z,10.50
2023-02-17T01:59:32.270Z,10.56
2023-02-17T02:02:04.429Z,10.54
2023-02-17T02:04:35.005Z,10.56
2023-02-17T02:07:05.332Z,10.57
2023-02-17T02:09:39.866Z,10.55
2023-02-17T02:12:19.490Z,10.58
2023-02-17T02:14:48.583Z,10.44
2023-02-17T02:17:28.430Z,10.44
2023-02-17T02:20:17.351Z,10.51
2023-02-17T02:23:30.061Z,10.54
2023-02-17T02:26:35.191Z,10.65
2023-02-17T02:29:31.950Z,10.77
2023-02-17T02:32:10.536Z,10.75
2023-02-17T02:34:46.634Z,10.74
2023-02-17T02:37:18.182Z,10.91
2023-02-17T02:39:50.153Z,10.73
2023-02-17T02:42:21.484Z,10.76
2023-02-17T02:44:49.854Z,10.89
2023-02-17T02:47:44.312Z,10.79
2023-02-17T02:50:18.526Z,10.81
2023-02-17T02:53:02.677Z,10.99
2023-02-17T02:55:45.549Z,10.90
2023-02-17T02:58:19.592Z,10.96
2023-02-17T03:00:54.795Z,10.75
2023-02-17T03:03:27.871Z,11.01
2023-02-17T03:06:04.162Z,10.75
2023-02-17T03:08:36.599Z,10.95
2023-02-17T03:11:05.069Z,10.92
2023-02-17T03:13:39.722Z,10.98
2023-02-17T03:16:12.204Z,10.96
2023-02-17T03:18:40.232Z,10.92
2023-02-17T03:21:15.721Z,10.99
2023-02-17T03:23:44.453Z,10.91
2023-02-17T03:26:12.359Z,10.89
2023-02-17T03:28:40.671Z,11.04
2023-02-17T03:31:08.734Z,11.01
2023-02-17T03:33:36.814Z,11.05
2023-02-17T03:36:05.379Z,10.94
2023-02-17T03:38:35.550Z,10.96
2023-02-17T03:41:03.569Z,10.90
2023-02-17T03:43:31.633Z,11.03
2023-02-17T03:45:59.802Z,11.13
2023-02-17T03:48:27.965Z,10.98
2023-02-17T03:50:56.017Z,10.99
2023-02-17T03:53:23.923Z,11.04
2023-02-17T03:55:53.389Z,10.94
2023-02-17T03:58:21.508Z,11.04
2023-02-17T04:00:49.536Z,10.92
2023-02-17T04:03:17.608Z,10.96
2023-02-17T04:05:46.236Z,11.02
2023-02-17T04:08:14.262Z,11.06
2023-02-17T04:10:42.266Z,10.97
2023-02-17T04:13:11.704Z,10.90
2023-02-17T04:15:39.705Z,10.96
2023-02-17T04:18:07.678Z,11.05
2023-02-17T04:20:35.722Z,11.00
2023-02-17T04:23:04.077Z,11.03
2023-02-17T04:25:34.395Z,10.97
2023-02-17T04:28:02.654Z,11.13
2023-02-17T04:30:32.425Z,11.06
2023-02-17T04:33:00.796Z,11.13
2023-02-17T04:35:29.080Z,11.04
2023-02-17T04:37:57.079Z,11.13
2023-02-17T04:40:25.201Z,11.07
2023-02-17T04:42:53.233Z,10.92
2023-02-17T04:45:21.380Z,10.99
2023-02-17T04:47:50.792Z,11.12
2023-02-17T04:50:20.921Z,11.10
2023-02-17T04:52:49.114Z,10.99
2023-02-17T04:55:17.406Z,11.03
2023-02-17T04:57:45.382Z,11.00
2023-02-17T05:00:14.068Z,11.04
2023-02-17T05:02:42.016Z,10.85
2023-02-17T05:05:15.368Z,10.97
2023-02-17T05:07:43.802Z,11.08
2023-02-17T05:10:12.775Z,10.95
2023-02-17T05:12:40.990Z,10.97
2023-02-17T05:15:09.834Z,11.11
2023-02-17T05:17:37.925Z,11.10
2023-02-17T05:20:08.951Z,11.00
2023-02-17T05:22:39.076Z,11.04
2023-02-17T05:25:07.877Z,11.12
2023-02-17T05:27:36.032Z,10.98
2023-02-17T05:30:04.224Z,11.08
2023-02-17T05:32:32.173Z,10.99
2023-02-17T05:35:00.248Z,11.00
2023-02-17T05:37:28.498Z,11.00
2023-02-17T05:39:58.025Z,11.08
2023-02-17T05:42:28.747Z,11.09
2023-02-17T05:44:56.951Z,10.96
2023-02-17T05:47:27.337Z,11.00
2023-02-17T05:49:55.859Z,11.01
2023-02-17T05:52:23.890Z,11.13
2023-02-17T05:54:51.848Z,11.18
2023-02-17T05:57:21.425Z,11.04
2023-02-17T05:59:49.555Z,10.85
2023-02-17T06:02:17.607Z,10.96
2023-02-17T06:04:45.585Z,10.98
2023-02-17T06:07:13.582Z,10.88
2023-02-17T06:09:41.633Z,10.94
2023-02-17T06:12:09.622Z,10.99
2023-02-17T06:14:39.056Z,10.93
2023-02-17T06:17:07.036Z,10.91
2023-02-17T06:19:35.464Z,10.92
2023-02-17T06:22:03.570Z,11.03
2023-02-17T06:24:31.531Z,11.01
2023-02-17T06:26:59.755Z,11.12
2023-02-17T06:29:29.126Z,11.18
2023-02-17T06:31:58.658Z,11.01
2023-02-17T06:34:26.628Z,11.09
2023-02-17T06:36:55.736Z,11.15
2023-02-17T06:39:23.916Z,11.11
2023-02-17T06:41:51.945Z,11.07
2023-02-17T06:44:20.036Z,11.12
2023-02-17T06:46:48.050Z,11.00
2023-02-17T06:49:17.592Z,11.00
2023-02-17T06:51:45.712Z,11.07
2023-02-17T06:54:13.728Z,10.95
2023-02-17T06:56:41.744Z,10.94
2023-02-17T06:59:09.859Z,10.92
2023-02-17T07:01:38.046Z,10.93
2023-02-17T07:04:06.302Z,10.98
2023-02-17T07:06:35.657Z,11.04
2023-02-17T07:09:04.572Z,10.98
2023-02-17T07:11:32.948Z,10.85
2023-02-17T07:14:04.412Z,11.10
2023-02-17T07:16:32.851Z,11.04
2023-02-17T07:19:01.137Z,11.10
2023-02-17T07:21:29.711Z,10.98
2023-02-17T07:23:59.698Z,11.05
2023-02-17T07:26:28.088Z,11.09
2023-02-17T07:28:56.802Z,11.06
2023-02-17T07:31:25.321Z,11.07
2023-02-17T07:33:53.846Z,11.24
2023-02-17T07:36:22.398Z,11.28
2023-02-17T07:38:50.896Z,11.15
2023-02-17T07:41:24.733Z,11.23
2023-02-17T07:43:56.366Z,11.24
2023-02-17T07:46:25.252Z,11.13
2023-02-17T07:48:54.089Z,11.24
2023-02-17T07:51:24.132Z,11.18
2023-02-17T07:53:53.441Z,11.17
2023-02-17T07:56:27.551Z,11.18
2023-02-17T07:58:55.998Z,11.11
2023-02-17T08:01:25.855Z,11.20
2023-02-17T08:03:55.586Z,11.20
2023-02-17T08:06:26.068Z,11.16
2023-02-17T08:09:11.890Z,11.19
2023-02-17T08:12:00.206Z,11.24
2023-02-17T08:14:32.351Z,11.13
2023-02-17T08:17:02.241Z,11.38
2023-02-17T08:19:46.528Z,11.21
2023-02-17T08:22:15.707Z,11.28
2023-02-17T08:24:44.223Z,11.25
2023-02-17T08:27:15.657Z,11.29
2023-02-17T08:29:44.784Z,11.28
2023-02-17T08:32:13.988Z,11.31
2023-02-17T08:34:43.080Z,11.35
2023-02-17T08:37:14.279Z,11.30
2023-02-17T08:39:45.787Z,11.34
2023-02-17T08:42:15.695Z,11.45
2023-02-17T08:44:44.264Z,11.37
2023-02-17T08:47:12.744Z,11.43
2023-02-17T08:49:42.209Z,11.58
2023-02-17T08:52:11.017Z,11.42
2023-02-17T08:54:39.643Z,11.52
2023-02-17T08:57:08.313Z,11.47
2023-02-17T08:59:38.949Z,11.51
2023-02-17T09:02:08.469Z,11.52
2023-02-17T09:04:37.136Z,11.65
2023-02-17T09:07:05.522Z,11.71
2023-02-17T09:09:35.014Z,11.63
2023-02-17T09:12:03.714Z,11.86
2023-02-17T09:14:34.914Z,11.80
2023-02-17T09:17:05.422Z,11.95
2023-02-17T09:19:34.187Z,11.85
2023-02-17T09:22:03.020Z,11.91
2023-02-17T09:24:33.384Z,12.09
2023-02-17T09:27:03.130Z,12.00
2023-02-17T09:29:31.946Z,12.03
2023-02-17T09:32:00.642Z,12.01
2023-02-17T09:34:30.862Z,11.96
2023-02-17T09:37:00.119Z,12.12
2023-02-17T09:39:28.597Z,12.18
2023-02-17T09:41:58.187Z,12.27
2023-02-17T09:44:28.094Z,12.34
2023-02-17T09:47:06.077Z,12.30
2023-02-17T09:49:40.514Z,12.49
2023-02-17T09:52:15.431Z,12.47
2023-02-17T09:54:55.205Z,12.46
2023-02-17T09:57:27.962Z,12.48
2023-02-17T09:59:59.116Z,12.51
2023-02-17T10:02:33.692Z,12.57
2023-02-17T10:05:07.536Z,12.42
2023-02-17T10:07:42.137Z,12.38
2023-02-17T10:10:16.027Z,12.50
2023-02-17T10:12:48.943Z,12.52
2023-02-17T10:15:21.064Z,12.63
2023-02-17T10:17:56.402Z,12.72
2023-02-17T10:20:33.047Z,12.68
2023-02-17T10:23:05.945Z,12.71
2023-02-17T10:26:03.373Z,12.61
2023-02-17T10:28:48.482Z,12.68
2023-02-17T10:31:26.994Z,12.72
2023-02-17T10:34:03.323Z,12.82
2023-02-17T10:36:43.782Z,12.74
2023-02-17T10:39:16.202Z,12.79
2023-02-17T10:41:48.597Z,12.63
2023-02-17T10:44:21.585Z,12.73
2023-02-17T10:46:51.634Z,12.80
2023-02-17T10:49:26.332Z,12.88
2023-02-17T10:51:57.285Z,12.94
2023-02-17T10:54:32.870Z,12.94
2023-02-17T10:57:04.706Z,12.87
2023-02-17T10:59:39.148Z,12.98
2023-02-17T11:02:18.725Z,13.08
2023-02-17T11:04:49.026Z,13.15
2023-02-17T11:07:21.651Z,13.04
2023-02-17T11:09:52.702Z,12.97
2023-02-17T11:12:26.834Z,13.01
2023-02-17T11:14:56.995Z,12.85
2023-02-17T11:17:30.434Z,13.02
2023-02-17T11:20:04.320Z,12.99
2023-02-17T11:22:38.526Z,13.18
2023-02-17T11:25:21.122Z,13.17
2023-02-17T11:27:53.028Z,13.22
2023-02-17T11:30:22.459Z,13.24
2023-02-17T11:32:50.839Z,13.30
2023-02-17T11:35:25.990Z,13.58
2023-02-17T11:38:02.693Z,13.39
2023-02-17T11:40:32.594Z,13.41
2023-02-17T11:43:03.003Z,13.40
2023-02-17T11:45:40.421Z,13.56
2023-02-17T11:48:28.369Z,13.45
2023-02-17T11:51:03.891Z,13.60
2023-02-17T11:53:48.318Z,13.64
2023-02-17T11:56:20.074Z,13.76
2023-02-17T11:59:15.483Z,13.45
2023-02-17T12:02:08.315Z,13.46
2023-02-17T12:04:43.717Z,13.56
2023-02-17T12:07:28.391Z,13.58
2023-02-17T12:10:05.388Z,13.71
2023-02-17T12:12:46.082Z,13.68
2023-02-17T12:15:37.596Z,13.70
2023-02-17T12:18:20.270Z,13.86
2023-02-17T12:20:57.969Z,13.75
2023-02-17T12:23:38.554Z,13.91
2023-02-17T12:26:15.171Z,13.94
2023-02-17T12:28:53.420Z,13.90
2023-02-17T12:31:39.058Z,14.12
2023-02-17T12:34:17.105Z,13.96
2023-02-17T12:36:45.810Z,13.84
2023-02-17T12:39:20.145Z,13.81
2023-02-17T12:41:54.735Z,13.91
2023-02-17T12:44:28.006Z,13.84
2023-02-17T12:46:59.794Z,13.90
2023-02-17T12:49:33.741Z,13.85
2023-02-17T12:52:07.891Z,13.78
2023-02-17T12:54:41.822Z,13.91
2023-02-17T12:57:16.457Z,13.96
2023-02-17T12:59:45.998Z,13.97
2023-02-17T13:02:15.992Z,13.96
2023-02-17T13:04:45.990Z,14.22
2023-02-17T13:07:26.480Z,14.19
2023-02-17T13:09:56.727Z,14.05
2023-02-17T13:12:36.527Z,14.12
2023-02-17T13:15:08.413Z,14.20
2023-02-17T13:17:40.488Z,13.96
2023-02-17T13:20:27.991Z,14.05
2023-02-17T13:23:12.119Z,14.09
2023-02-17T13:25:40.760Z,14.17
2023-02-17T13:28:35.983Z,14.17
2023-02-17T13:31:17.659Z,14.24
2023-02-17T13:33:51.690Z,14.37
2023-02-17T13:36:34.746Z,14.17
2023-02-17T13:39:05.008Z,14.22
2023-02-17T13:41:44.918Z,14.28
2023-02-17T13:44:29.695Z,14.16
2023-02-17T13:47:01.799Z,14.14
2023-02-17T13:49:35.184Z,14.23
2023-02-17T13:52:13.246Z,14.34
2023-02-17T13:54:42.014Z,14.11
2023-02-17T13:57:27.206Z,14.00
2023-02-17T14:00:06.947Z,14.11
2023-02-17T14:02:45.969Z,14.22
2023-02-17T14:05:20.173Z,13.97
2023-02-17T14:07:49.182Z,14.11
2023-02-17T14:10:21.059Z,13.98
2023-02-17T14:12:50.025Z,14.15
2023-02-17T14:15:22.569Z,14.10
2023-02-17T14:17:50.688Z,13.99
2023-02-17T14:20:30.828Z,13.86
2023-02-17T14:23:05.532Z,13.85
2023-02-17T14:25:36.484Z,13.87
2023-02-17T14:28:05.110Z,13.69
2023-02-17T14:30:36.775Z,13.80
2023-02-17T14:33:09.812Z,13.89
2023-02-17T14:35:39.513Z,13.78
2023-02-17T14:38:09.508Z,13.74
2023-02-17T14:40:40.006Z,13.74
2023-02-17T14:43:08.469Z,13.83
2023-02-17T14:45:37.895Z,13.62
2023-02-17T14:48:06.559Z,13.61
2023-02-17T14:50:35.363Z,13.53
2023-02-17T14:53:03.459Z,13.33
2023-02-17T14:55:38.369Z,13.23
2023-02-17T14:58:06.820Z,13.16
2023-02-17T15:00:34.762Z,13.03
2023-02-17T15:03:04.417Z,13.04
2023-02-17T15:05:32.488Z,13.09
2023-02-17T15:08:02.267Z,13.11
2023-02-17T15:10:30.592Z,12.97
2023-02-17T15:12:58.727Z,12.93
2023-02-17T15:15:26.947Z,12.86
2023-02-17T15:17:54.885Z,12.72
2023-02-17T15:20:25.761Z,12.72
2023-02-17T15:22:54.592Z,12.78
2023-02-17T15:25:23.378Z,12.75
2023-02-17T15:27:51.736Z,12.51
2023-02-17T15:30:21.296Z,12.49
2023-02-17T15:32:49.545Z,12.39
2023-02-17T15:35:20.252Z,12.45
2023-02-17T15:37:50.206Z,12.59
2023-02-17T15:40:20.871Z,12.42
2023-02-17T15:42:53.978Z,12.52
2023-02-17T15:45:23.578Z,12.27
2023-02-17T15:47:53.565Z,12.36
2023-02-17T15:50:23.373Z,12.17
2023-02-17T15:52:53.723Z,12.23
2023-02-17T15:55:23.830Z,12.34
2023-02-17T15:57:55.206Z,12.23
2023-02-17T16:00:26.458Z,12.28
2023-02-17T16:02:55.398Z,12.30
2023-02-17T16:05:25.442Z,12.30
2023-02-17T16:07:55.329Z,12.26
2023-02-17T16:10:27.653Z,12.34
2023-02-17T16:12:58.321Z,12.37
2023-02-17T16:15:27.406Z,12.44
2023-02-17T16:17:56.067Z,12.44
2023-02-17T16:20:27.327Z,12.35
2023-02-17T16:22:57.209Z,12.35
2023-02-17T16:25:25.449Z,12.30
2023-02-17T16:27:54.607Z,12.43
2023-02-17T16:30:25.689Z,12.37
2023-02-17T16:32:53.768Z,12.31
2023-02-17T16:35:25.098Z,12.49
2023-02-17T16:37:55.536Z,12.69
2023-02-17T16:40:27.299Z,12.68
2023-02-17T16:42:55.699Z,12.63
2023-02-17T16:45:25.810Z,12.53
2023-02-17T16:47:56.067Z,12.38
2023-02-17T16:50:26.350Z,12.62
2023-02-17T16:52:57.481Z,12.42
2023-02-17T16:55:30.187Z,12.45
2023-02-17T16:57:59.171Z,12.49
2023-02-17T17:00:29.850Z,12.43
2023-02-17T17:02:58.683Z,12.30
2023-02-17T17:05:28.383Z,12.28
2023-02-17T17:07:56.995Z,12.32
2023-02-17T17:10:29.214Z,12.35
2023-02-17T17:12:57.743Z,12.55
2023-02-17T17:15:25.935Z,12.58
2023-02-17T17:17:58.144Z,12.38
2023-02-17T17:20:31.547Z,12.44
2023-02-17T17:23:00.834Z,12.53
2023-02-17T17:25:31.161Z,12.55
2023-02-17T17:27:59.631Z,12.36
2023-02-17T17:30:31.473Z,12.27
2023-02-17T17:32:59.867Z,12.38
2023-02-17T17:35:28.455Z,12.35
2023-02-17T17:37:57.539Z,12.32
2023-02-17T17:40:28.021Z,12.45
2023-02-17T17:42:57.628Z,12.45
2023-02-17T17:45:26.532Z,12.40
2023-02-17T17:47:55.645Z,12.49
2023-02-17T17:50:25.403Z,12.44
2023-02-17T17:52:53.510Z,12.40
2023-02-17T17:55:21.530Z,12.43
2023-02-17T17:57:49.444Z,12.38
2023-02-17T18:00:20.496Z,12.38
2023-02-17T18:02:48.564Z,12.39
2023-02-17T18:05:17.747Z,12.34
2023-02-17T18:07:49.710Z,12.38
2023-02-17T18:10:18.269Z,12.25
2023-02-17T18:12:47.485Z,12.44
2023-02-17T18:15:16.733Z,12.43
2023-02-17T18:17:48.491Z,12.22
2023-02-17T18:20:16.649Z,12.21
2023-02-17T18:22:44.668Z,12.28
2023-02-17T18:25:12.729Z,12.01
2023-02-17T18:27:42.278Z,12.19
2023-02-17T18:30:11.852Z,12.19
2023-02-17T18:32:39.951Z,12.17
2023-02-17T18:35:10.479Z,12.10
2023-02-17T18:37:40.385Z,12.21
2023-02-17T18:40:12.620Z,12.03
2023-02-17T18:42:41.203Z,12.21
2023-02-17T18:45:10.579Z,12.19
2023-02-17T18:47:38.766Z,12.03
2023-02-17T18:50:10.454Z,12.27
2023-02-17T18:52:39.567Z,12.22
2023-02-17T18:55:08.478Z,12.03
2023-02-17T18:57:37.519Z,12.25
2023-02-17T19:00:09.376Z,12.24
2023-02-17T19:02:37.933Z,12.10
2023-02-17T19:05:06.554Z,12.18
2023-02-17T19:07:36.141Z,12.24
2023-02-17T19:10:04.960Z,12.05
2023-02-17T19:12:34.480Z,12.19
2023-02-17T19:15:03.249Z,12.28
2023-02-17T19:17:31.521Z,12.20
2023-02-17T19:20:00.622Z,12.39
2023-02-17T19:22:28.785Z,12.23
2023-02-17T19:24:58.514Z,12.00
2023-02-17T19:27:28.814Z,12.10
2023-02-17T19:29:57.879Z,11.96
2023-02-17T19:32:25.813Z,12.37
2023-02-17T19:34:54.147Z,12.25
2023-02-17T19:37:22.433Z,12.25
2023-02-17T19:39:50.565Z,12.03
2023-02-17T19:42:20.200Z,12.01
2023-02-17T19:44:48.893Z,12.13
2023-02-17T19:47:17.079Z,12.21
2023-02-17T19:49:45.717Z,12.24
2023-02-17T19:52:13.822Z,12.30
2023-02-17T19:54:42.796Z,12.18
2023-02-17T19:57:10.938Z,12.03
2023-02-17T20:11:36.410Z,11.92
2023-02-17T20:14:05.382Z,11.96
2023-02-17T20:16:33.846Z,11.93
2023-02-17T20:19:02.803Z,12.03
2023-02-17T20:21:33.320Z,12.06
2023-02-17T20:24:01.756Z,12.10
2023-02-17T20:26:32.132Z,12.04
2023-02-17T20:29:03.356Z,12.04
2023-02-17T20:31:31.937Z,11.88
2023-02-17T20:34:00.569Z,11.89
2023-02-17T20:36:28.702Z,11.94
2023-02-17T20:38:56.807Z,12.11
2023-02-17T20:41:25.533Z,11.91
2023-02-17T20:43:54.137Z,12.04
2023-02-17T20:46:26.169Z,11.90
2023-02-17T20:48:54.976Z,11.90
2023-02-17T20:51:23.375Z,11.92
2023-02-17T20:53:51.343Z,11.91
2023-02-17T20:56:21.729Z,12.03
2023-02-17T20:58:49.797Z,11.98
2023-02-17T21:01:17.959Z,12.01
2023-02-17T21:03:47.776Z,11.97
2023-02-17T21:06:21.944Z,11.89
2023-02-17T21:08:53.443Z,12.01
2023-02-17T21:11:21.795Z,11.96
2023-02-17T21:13:50.786Z,11.93
2023-02-17T21:16:21.273Z,11.90
2023-02-17T21:18:50.899Z,12.00
2023-02-17T21:21:19.162Z,11.93
2023-02-17T21:23:47.972Z,11.90
2023-02-17T21:26:17.073Z,12.01
2023-02-17T21:28:45.595Z,12.01
2023-02-17T21:31:14.956Z,11.90
2023-02-17T21:33:43.950Z,11.88
2023-02-17T21:36:15.526Z,11.97
2023-02-17T21:38:44.245Z,11.96
2023-02-17T21:41:14.030Z,11.90
2023-02-17T21:43:59.818Z,11.89
2023-02-17T21:46:28.455Z,11.97
2023-02-17T21:48:57.069Z,11.82
2023-02-17T21:51:26.760Z,11.70
2023-02-17T21:53:55.075Z,11.82
2023-02-17T21:56:23.910Z,11.71
2023-02-17T21:58:54.258Z,11.68
2023-02-17T22:01:24.155Z,11.91
2023-02-17T22:03:52.918Z,11.84
2023-02-17T22:06:23.658Z,11.79
2023-02-17T22:08:53.277Z,11.77
2023-02-17T22:11:24.296Z,11.80
2023-02-17T22:13:55.086Z,11.80
2023-02-17T22:16:23.597Z,11.61
2023-02-17T22:18:51.930Z,11.76
2023-02-17T22:21:20.134Z,11.74
2023-02-17T22:23:48.391Z,11.78
2023-02-17T22:26:19.906Z,11.78
2023-02-17T22:28:48.888Z,11.67
2023-02-17T22:31:20.370Z,11.66
2023-02-17T22:33:48.736Z,11.61
2023-02-17T22:36:19.089Z,11.79
2023-02-17T22:38:47.545Z,11.90
2023-02-17T22:41:19.536Z,11.81
2023-02-17T22:43:49.097Z,11.90
2023-02-17T22:46:18.818Z,11.74
2023-02-17T22:48:48.615Z,11.84
2023-02-17T22:51:18.471Z,11.80
2023-02-17T22:53:46.941Z,11.75
2023-02-17T22:56:16.058Z,11.66
2023-02-17T22:58:45.530Z,11.70
2023-02-17T23:01:16.218Z,11.71
2023-02-17T23:03:45.181Z,11.60
2023-02-17T23:06:15.208Z,11.61
2023-02-17T23:08:43.360Z,11.77
2023-02-17T23:11:13.864Z,11.72
2023-02-17T23:13:42.200Z,11.79
2023-02-17T23:16:13.482Z,11.75
2023-02-17T23:18:41.993Z,11.78
2023-02-17T23:21:12.736Z,11.64
2023-02-17T23:23:40.858Z,11.71
2023-02-17T23:26:09.285Z,11.67
2023-02-17T23:28:37.407Z,11.70
2023-02-17T23:31:05.551Z,11.89
2023-02-17T23:33:35.192Z,11.58
2023-02-17T23:36:04.951Z,11.54
2023-02-17T23:38:33.278Z,11.67
2023-02-17T23:41:02.032Z,11.69
2023-02-17T23:43:30.070Z,11.70
2023-02-17T23:45:59.715Z,11.73
2023-02-17T23:48:27.645Z,11.78
2023-02-17T23:51:01.272Z,11.68
2023-02-17T23:53:30.048Z,11.51
2023-02-17T23:56:02.966Z,11.66
2023-02-17T23:58:31.020Z,11.63
